PWSweather.com
Personal Weather Stations
Station Observations
ZYBORSKI
Fromes HillGB hr8 1

Fromes HillGB hr8 1

Lat: 52.1172558, Lon: -2.4749163

Elevation: 0

Station Type: FineOffset

High Low Average
Temperature 55.2°F12.9°F 47.1°F8.4°F 51.2°F10.7°F
Dew Point 54.7°F12.6°F 46.9°F8.3°F 50.5°F10.3°F
Winds 19.7 mph W31.7 mph W Calm Calm 2.4 mph 3.9 mph
Wind Gusts 40.3 mph64.9 mph -- 14.6 mph23.5 mph
Humidity 99% 82% 98%
Pressure 29.73 in1006.80 in 29.32 in992.90 in -
Precipitation 1.96 in49.80 in - -
Hour Temp Dew Point Humidity Winds Wind Gusts Pressure Precip Precip Rate Daily Precip Total
12:00 AM 50.4°F10.2°C 50.1°F10.1°C 99% Calm Calm 2.2 mph3.5 kmh 29.50 in999.0 mb 0.07 in1.8 mm 0.00 in0.0 mm 0.07 in1.8 mm
12:15 AM 50.4°F10.2°C 50.1°F10.1°C 99% Calm Calm 10.7 mph17.2 kmh 29.46 in997.6 mb 0.17 in4.3 mm 0.40 in10.2 mm 0.17 in4.3 mm
12:30 AM 50.4°F10.2°C 50.1°F10.1°C 99% 2.2 mph NE3.5 kmh NE 13.0 mph20.9 kmh 29.45 in997.3 mb 0.21 in5.3 mm 0.16 in4.1 mm 0.24 in6.1 mm
12:45 AM 50.5°F10.3°C 50.3°F10.2°C 99% 3.1 mph NE5.0 kmh NE 15.9 mph25.6 kmh 29.44 in997.0 mb 0.18 in4.6 mm 0.00 in0.0 mm 0.24 in6.1 mm
01:00 AM 50.7°F10.4°C 50.5°F10.3°C 99% 0.7 mph NE1.1 kmh NE 15.9 mph25.6 kmh 29.43 in996.6 mb 0.17 in4.3 mm 0.00 in0.0 mm 0.24 in6.1 mm
01:15 AM 50.7°F10.4°C 50.5°F10.3°C 99% 0.7 mph NE1.1 kmh NE 14.5 mph23.3 kmh 29.41 in995.9 mb 0.07 in1.8 mm 0.00 in0.0 mm 0.24 in6.1 mm
01:30 AM 50.9°F10.5°C 50.6°F10.3°C 99% Calm Calm 13.0 mph20.9 kmh 29.40 in995.6 mb 0.01 in0.3 mm 0.00 in0.0 mm 0.25 in6.4 mm
01:45 AM 51.1°F10.6°C 50.8°F10.4°C 99% 4.5 mph NE7.2 kmh NE 13.6 mph21.9 kmh 29.39 in995.3 mb 0.01 in0.3 mm 0.00 in0.0 mm 0.25 in6.4 mm
02:00 AM 51.3°F10.7°C 51.0°F10.6°C 99% 0.7 mph NE1.1 kmh NE 6.0 mph9.7 kmh 29.38 in994.9 mb 0.02 in0.5 mm 0.01 in0.3 mm 0.26 in6.6 mm
02:15 AM 51.4°F10.8°C 51.2°F10.7°C 99% Calm Calm 8.3 mph13.4 kmh 29.37 in994.6 mb 0.02 in0.5 mm 0.00 in0.0 mm 0.26 in6.6 mm
02:30 AM 51.8°F11.0°C 51.5°F10.8°C 99% Calm Calm 3.8 mph6.1 kmh 29.36 in994.2 mb 0.01 in0.3 mm 0.00 in0.0 mm 0.26 in6.6 mm
02:45 AM 52.2°F11.2°C 51.9°F11.1°C 99% Calm Calm -- 29.36 in994.2 mb 0.01 in0.3 mm 0.00 in0.0 mm 0.26 in6.6 mm
03:00 AM 52.5°F11.4°C 52.3°F11.3°C 99% Calm Calm -- 29.35 in993.9 mb 0.00 in0.0 mm 0.00 in0.0 mm 0.26 in6.6 mm
03:15 AM 53.1°F11.7°C 52.8°F11.6°C 99% Calm Calm 0.7 mph1.1 kmh 29.34 in993.6 mb 0.01 in0.3 mm 0.04 in1.0 mm 0.27 in6.9 mm
03:30 AM 53.6°F12.0°C 53.3°F11.8°C 99% Calm Calm 0.7 mph1.1 kmh 29.34 in993.6 mb 0.01 in0.3 mm 0.00 in0.0 mm 0.27 in6.9 mm
03:45 AM 53.6°F12.0°C 53.3°F11.8°C 99% Calm Calm 0.7 mph1.1 kmh 29.33 in993.2 mb 0.01 in0.3 mm 0.00 in0.0 mm 0.27 in6.9 mm
04:00 AM 53.8°F12.1°C 53.5°F11.9°C 99% Calm Calm 2.2 mph3.5 kmh 29.33 in993.2 mb 0.01 in0.3 mm 0.00 in0.0 mm 0.27 in6.9 mm
04:15 AM 54.0°F12.2°C 53.7°F12.1°C 99% Calm Calm 1.6 mph2.6 kmh 29.32 in992.9 mb 0.00 in0.0 mm 0.00 in0.0 mm 0.27 in6.9 mm
04:30 AM 54.0°F12.2°C 53.7°F12.1°C 99% Calm Calm 1.6 mph2.6 kmh 29.32 in992.9 mb 0.00 in0.0 mm 0.00 in0.0 mm 0.27 in6.9 mm
04:45 AM 53.6°F12.0°C 53.3°F11.8°C 99% Calm Calm 3.1 mph5.0 kmh 29.32 in992.9 mb 0.00 in0.0 mm 0.00 in0.0 mm 0.27 in6.9 mm
05:00 AM 53.4°F11.9°C 53.2°F11.8°C 99% Calm Calm 7.6 mph12.2 kmh 29.32 in992.9 mb 0.00 in0.0 mm 0.00 in0.0 mm 0.27 in6.9 mm
05:15 AM 53.4°F11.9°C 53.2°F11.8°C 99% Calm Calm 4.5 mph7.2 kmh 29.32 in992.9 mb 0.00 in0.0 mm 0.00 in0.0 mm 0.27 in6.9 mm
05:30 AM 53.4°F11.9°C 53.2°F11.8°C 99% Calm Calm 4.5 mph7.2 kmh 29.32 in992.9 mb 0.00 in0.0 mm 0.00 in0.0 mm 0.27 in6.9 mm
05:45 AM 53.4°F11.9°C 53.2°F11.8°C 99% Calm Calm 1.6 mph2.6 kmh 29.32 in992.9 mb 0.00 in0.0 mm 0.00 in0.0 mm 0.27 in6.9 mm
06:00 AM 53.4°F11.9°C 53.2°F11.8°C 99% Calm Calm 0.7 mph1.1 kmh 29.33 in993.2 mb 0.00 in0.0 mm 0.00 in0.0 mm 0.27 in6.9 mm
06:15 AM 53.6°F12.0°C 53.3°F11.8°C 99% Calm Calm 1.6 mph2.6 kmh 29.33 in993.2 mb 0.00 in0.0 mm 0.00 in0.0 mm 0.27 in6.9 mm
06:30 AM 53.4°F11.9°C 53.2°F11.8°C 99% Calm Calm 3.1 mph5.0 kmh 29.32 in992.9 mb 0.00 in0.0 mm 0.00 in0.0 mm 0.27 in6.9 mm
06:45 AM 53.6°F12.0°C 53.3°F11.8°C 99% Calm Calm 7.6 mph12.2 kmh 29.32 in992.9 mb 0.00 in0.0 mm 0.00 in0.0 mm 0.27 in6.9 mm
07:00 AM 53.6°F12.0°C 53.3°F11.8°C 99% Calm Calm 8.3 mph13.4 kmh 29.32 in992.9 mb 0.00 in0.0 mm 0.00 in0.0 mm 0.27 in6.9 mm
07:15 AM 53.6°F12.0°C 53.3°F11.8°C 99% Calm Calm 8.3 mph13.4 kmh 29.34 in993.6 mb 0.01 in0.3 mm 0.04 in1.0 mm 0.28 in7.1 mm
07:30 AM 53.4°F11.9°C 53.2°F11.8°C 99% 4.5 mph SW7.2 kmh SW 19.7 mph31.7 kmh 29.35 in993.9 mb 0.01 in0.3 mm 0.00 in0.0 mm 0.28 in7.1 mm
07:45 AM 53.8°F12.1°C 53.5°F11.9°C 99% 5.4 mph WSW8.7 kmh WSW 25.1 mph40.4 kmh 29.37 in994.6 mb 0.01 in0.3 mm 0.00 in0.0 mm 0.28 in7.1 mm
08:00 AM 54.5°F12.5°C 54.2°F12.3°C 99% 6.0 mph SW9.7 kmh SW 15.2 mph24.5 kmh 29.39 in995.3 mb 0.01 in0.3 mm 0.00 in0.0 mm 0.28 in7.1 mm
08:15 AM 53.2°F11.8°C 53.0°F11.7°C 99% 2.2 mph SW3.5 kmh SW 24.4 mph39.3 kmh 29.41 in995.9 mb 0.00 in0.0 mm 0.00 in0.0 mm 0.28 in7.1 mm
08:30 AM 47.3°F8.5°C 47.0°F8.3°C 99% 19.7 mph W31.7 kmh W 35.8 mph57.6 kmh 29.44 in997.0 mb 0.01 in0.3 mm 0.04 in1.0 mm 0.30 in7.6 mm
08:45 AM 49.1°F9.5°C 48.8°F9.3°C 99% 6.9 mph WSW11.1 kmh WSW 25.1 mph40.4 kmh 29.46 in997.6 mb 0.01 in0.3 mm 0.00 in0.0 mm 0.30 in7.6 mm
09:00 AM 48.9°F9.4°C 48.7°F9.3°C 99% 8.3 mph WSW13.4 kmh WSW 25.1 mph40.4 kmh 29.46 in997.6 mb 0.01 in0.3 mm 0.00 in0.0 mm 0.30 in7.6 mm
09:15 AM 49.5°F9.7°C 49.2°F9.6°C 99% 7.6 mph WSW12.2 kmh WSW 24.4 mph39.3 kmh 29.48 in998.3 mb 0.01 in0.3 mm 0.00 in0.0 mm 0.30 in7.6 mm
09:30 AM 49.6°F9.8°C 49.4°F9.7°C 99% 3.1 mph WSW5.0 kmh WSW 20.6 mph33.2 kmh 29.50 in999.0 mb 0.00 in0.0 mm 0.00 in0.0 mm 0.30 in7.6 mm
09:45 AM 50.2°F10.1°C 49.9°F9.9°C 99% Calm Calm 12.1 mph19.5 kmh 29.50 in999.0 mb 0.00 in0.0 mm 0.00 in0.0 mm 0.30 in7.6 mm
10:00 AM 52.3°F11.3°C 52.1°F11.2°C 99% 6.9 mph SW11.1 kmh SW 23.5 mph37.8 kmh 29.51 in999.3 mb 0.00 in0.0 mm 0.00 in0.0 mm 0.30 in7.6 mm
10:15 AM 53.4°F11.9°C 51.2°F10.7°C 92% 8.3 mph SSW13.4 kmh SSW 27.3 mph43.9 kmh 29.51 in999.3 mb 0.00 in0.0 mm 0.00 in0.0 mm 0.30 in7.6 mm
10:30 AM 53.4°F11.9°C 49.0°F9.4°C 85% 12.1 mph SW19.5 kmh SW 27.3 mph43.9 kmh 29.52 in999.7 mb 0.00 in0.0 mm 0.00 in0.0 mm 0.30 in7.6 mm
10:45 AM 53.1°F11.7°C 48.7°F9.3°C 85% 4.5 mph SW7.2 kmh SW 21.3 mph34.3 kmh 29.53 in1000.0 mb 0.00 in0.0 mm 0.00 in0.0 mm 0.30 in7.6 mm
11:00 AM 53.1°F11.7°C 47.7°F8.7°C 82% 9.2 mph SW14.8 kmh SW 29.8 mph48.0 kmh 29.55 in1000.7 mb 0.01 in0.3 mm 0.01 in0.3 mm 0.31 in7.9 mm
11:15 AM 52.7°F11.5°C 47.4°F8.6°C 82% 9.2 mph WSW14.8 kmh WSW 40.3 mph64.9 kmh 29.56 in1001.0 mb 0.02 in0.5 mm 0.04 in1.0 mm 0.32 in8.1 mm
11:30 AM 52.0°F11.1°C 48.5°F9.2°C 88% 2.2 mph SW3.5 kmh SW 26.6 mph42.8 kmh 29.58 in1001.7 mb 0.02 in0.5 mm 0.00 in0.0 mm 0.32 in8.1 mm
11:45 AM 54.1°F12.3°C 51.0°F10.6°C 89% Calm Calm 22.1 mph35.6 kmh 29.58 in1001.7 mb 0.02 in0.5 mm 0.00 in0.0 mm 0.32 in8.1 mm
12:00 PM 54.3°F12.4°C 50.5°F10.3°C 87% 6.0 mph SW9.7 kmh SW 20.6 mph33.2 kmh 29.58 in1001.7 mb 0.01 in0.3 mm 0.00 in0.0 mm 0.32 in8.1 mm
12:15 PM 53.8°F12.1°C 51.2°F10.7°C 91% 6.0 mph SSW9.7 kmh SSW 22.1 mph35.6 kmh 29.59 in1002.0 mb 0.00 in0.0 mm 0.00 in0.0 mm 0.32 in8.1 mm
12:30 PM 55.0°F12.8°C 53.4°F11.9°C 94% Calm Calm 20.6 mph33.2 kmh 29.60 in1002.4 mb 0.00 in0.0 mm 0.00 in0.0 mm 0.32 in8.1 mm
12:45 PM 54.5°F12.5°C 52.5°F11.4°C 93% 0.7 mph SW1.1 kmh SW 15.9 mph25.6 kmh 29.60 in1002.4 mb 0.00 in0.0 mm 0.00 in0.0 mm 0.32 in8.1 mm
01:00 PM 54.7°F12.6°C 53.9°F12.2°C 97% Calm Calm 18.3 mph29.5 kmh 29.61 in1002.7 mb 0.00 in0.0 mm 0.00 in0.0 mm 0.32 in8.1 mm
01:15 PM 54.3°F12.4°C 53.2°F11.8°C 96% 6.9 mph SSW11.1 kmh SSW 18.3 mph29.5 kmh 29.60 in1002.4 mb 0.00 in0.0 mm 0.00 in0.0 mm 0.32 in8.1 mm
01:30 PM 54.7°F12.6°C 53.3°F11.8°C 95% Calm Calm 17.4 mph28.0 kmh 29.60 in1002.4 mb 0.00 in0.0 mm 0.00 in0.0 mm 0.32 in8.1 mm
01:45 PM 54.5°F12.5°C 54.0°F12.2°C 98% Calm Calm 19.7 mph31.7 kmh 29.61 in1002.7 mb 0.00 in0.0 mm 0.00 in0.0 mm 0.32 in8.1 mm
02:00 PM 55.2°F12.9°C 54.7°F12.6°C 98% 6.0 mph S9.7 kmh S 24.4 mph39.3 kmh 29.60 in1002.4 mb 0.00 in0.0 mm 0.00 in0.0 mm 0.32 in8.1 mm
02:15 PM 53.8°F12.1°C 53.5°F11.9°C 99% 0.7 mph SW1.1 kmh SW 24.4 mph39.3 kmh 29.62 in1003.0 mb 0.00 in0.0 mm 0.00 in0.0 mm 0.32 in8.1 mm
02:30 PM 51.1°F10.6°C 50.8°F10.4°C 99% 6.9 mph SSW11.1 kmh SSW 20.6 mph33.2 kmh 29.61 in1002.7 mb 0.01 in0.3 mm 0.04 in1.0 mm 0.33 in8.4 mm
02:45 PM 50.7°F10.4°C 50.5°F10.3°C 99% 2.2 mph SSW3.5 kmh SSW 23.5 mph37.8 kmh 29.62 in1003.0 mb 0.02 in0.5 mm 0.04 in1.0 mm 0.34 in8.6 mm
03:00 PM 50.7°F10.4°C 50.5°F10.3°C 99% 5.4 mph SW8.7 kmh SW 13.6 mph21.9 kmh 29.62 in1003.0 mb 0.04 in1.0 mm 0.03 in0.8 mm 0.35 in8.9 mm
03:15 PM 50.0°F10.0°C 49.7°F9.8°C 99% 1.6 mph SW2.6 kmh SW 20.6 mph33.2 kmh 29.62 in1003.0 mb 0.09 in2.3 mm 0.20 in5.1 mm 0.41 in10.4 mm
03:30 PM 50.7°F10.4°C 50.5°F10.3°C 99% Calm Calm 15.9 mph25.6 kmh 29.62 in1003.0 mb 0.08 in2.0 mm 0.00 in0.0 mm 0.41 in10.4 mm
03:45 PM 50.4°F10.2°C 50.1°F10.1°C 99% Calm Calm 11.4 mph18.3 kmh 29.62 in1003.0 mb 0.07 in1.8 mm 0.00 in0.0 mm 0.41 in10.4 mm
04:00 PM 50.2°F10.1°C 49.9°F9.9°C 99% Calm Calm 10.7 mph17.2 kmh 29.62 in1003.0 mb 0.07 in1.8 mm 0.00 in0.0 mm 0.43 in10.9 mm
04:15 PM 51.1°F10.6°C 50.8°F10.4°C 99% Calm Calm 12.1 mph19.5 kmh 29.61 in1002.7 mb 0.01 in0.3 mm 0.00 in0.0 mm 0.43 in10.9 mm
04:30 PM 51.1°F10.6°C 50.8°F10.4°C 99% 3.8 mph S6.1 kmh S 15.9 mph25.6 kmh 29.60 in1002.4 mb 0.01 in0.3 mm 0.00 in0.0 mm 0.43 in10.9 mm
04:45 PM 48.6°F9.2°C 48.3°F9.1°C 99% 6.9 mph WSW11.1 kmh WSW 25.1 mph40.4 kmh 29.63 in1003.4 mb 0.08 in2.0 mm 0.28 in7.1 mm 0.50 in12.7 mm
05:00 PM 47.7°F8.7°C 47.4°F8.6°C 99% 9.8 mph SW15.8 kmh SW 23.5 mph37.8 kmh 29.62 in1003.0 mb 0.09 in2.3 mm 0.01 in0.3 mm 0.52 in13.2 mm
05:15 PM 49.8°F9.9°C 49.6°F9.8°C 99% Calm Calm 25.1 mph40.4 kmh 29.62 in1003.0 mb 0.09 in2.3 mm 0.00 in0.0 mm 0.52 in13.2 mm
05:30 PM 50.2°F10.1°C 49.9°F9.9°C 99% Calm Calm 15.9 mph25.6 kmh 29.62 in1003.0 mb 0.09 in2.3 mm 0.00 in0.0 mm 0.52 in13.2 mm
05:45 PM 49.6°F9.8°C 49.4°F9.7°C 99% 1.6 mph SW2.6 kmh SW 14.5 mph23.3 kmh 29.62 in1003.0 mb 0.02 in0.5 mm 0.00 in0.0 mm 0.52 in13.2 mm
06:00 PM 49.6°F9.8°C 49.4°F9.7°C 99% 6.9 mph SW11.1 kmh SW 19.7 mph31.7 kmh 29.64 in1003.7 mb 0.00 in0.0 mm 0.00 in0.0 mm 0.52 in13.2 mm
06:15 PM 49.8°F9.9°C 49.6°F9.8°C 99% 6.0 mph SSW9.7 kmh SSW 22.8 mph36.7 kmh 29.64 in1003.7 mb 0.00 in0.0 mm 0.00 in0.0 mm 0.52 in13.2 mm
06:30 PM 50.7°F10.4°C 50.5°F10.3°C 99% 3.8 mph SSW6.1 kmh SSW 25.9 mph41.7 kmh 29.64 in1003.7 mb 0.00 in0.0 mm 0.00 in0.0 mm 0.52 in13.2 mm
06:45 PM 50.2°F10.1°C 49.9°F9.9°C 99% 6.0 mph S9.7 kmh S 24.4 mph39.3 kmh 29.65 in1004.1 mb 0.00 in0.0 mm 0.00 in0.0 mm 0.52 in13.2 mm
07:00 PM 49.3°F9.6°C 49.0°F9.4°C 99% 1.6 mph SW2.6 kmh SW 23.5 mph37.8 kmh 29.66 in1004.4 mb 0.00 in0.0 mm 0.00 in0.0 mm 0.52 in13.2 mm
07:15 PM 49.1°F9.5°C 48.8°F9.3°C 99% 0.7 mph SW1.1 kmh SW 19.7 mph31.7 kmh 29.65 in1004.1 mb 0.01 in0.3 mm 0.04 in1.0 mm 0.53 in13.5 mm
07:30 PM 48.7°F9.3°C 48.5°F9.2°C 99% 5.4 mph SSW8.7 kmh SSW 19.0 mph30.6 kmh 29.67 in1004.7 mb 0.01 in0.3 mm 0.00 in0.0 mm 0.53 in13.5 mm
07:45 PM 48.2°F9.0°C 47.9°F8.8°C 99% 4.5 mph S7.2 kmh S 13.0 mph20.9 kmh 29.67 in1004.7 mb 0.01 in0.3 mm 0.00 in0.0 mm 0.53 in13.5 mm
08:00 PM 47.8°F8.8°C 47.6°F8.7°C 99% Calm Calm 10.7 mph17.2 kmh 29.68 in1005.1 mb 0.01 in0.3 mm 0.00 in0.0 mm 0.53 in13.5 mm
08:15 PM 47.8°F8.8°C 47.6°F8.7°C 99% 0.7 mph S1.1 kmh S 10.7 mph17.2 kmh 29.68 in1005.1 mb 0.00 in0.0 mm 0.00 in0.0 mm 0.53 in13.5 mm
08:30 PM 48.2°F9.0°C 47.9°F8.8°C 99% Calm Calm 15.2 mph24.5 kmh 29.69 in1005.4 mb 0.00 in0.0 mm 0.00 in0.0 mm 0.53 in13.5 mm
08:45 PM 48.0°F8.9°C 47.8°F8.8°C 99% 0.7 mph S1.1 kmh S 10.7 mph17.2 kmh 29.70 in1005.8 mb 0.00 in0.0 mm 0.00 in0.0 mm 0.53 in13.5 mm
09:00 PM 47.7°F8.7°C 47.4°F8.6°C 99% Calm Calm 11.4 mph18.3 kmh 29.70 in1005.8 mb 0.00 in0.0 mm 0.00 in0.0 mm 0.53 in13.5 mm
09:15 PM 47.3°F8.5°C 47.0°F8.3°C 99% Calm Calm 10.7 mph17.2 kmh 29.70 in1005.8 mb 0.00 in0.0 mm 0.00 in0.0 mm 0.53 in13.5 mm
09:30 PM 47.7°F8.7°C 47.4°F8.6°C 99% Calm Calm 11.4 mph18.3 kmh 29.70 in1005.8 mb 0.00 in0.0 mm 0.00 in0.0 mm 0.53 in13.5 mm
09:45 PM 47.5°F8.6°C 47.2°F8.4°C 99% Calm Calm 4.5 mph7.2 kmh 29.70 in1005.8 mb 0.00 in0.0 mm 0.00 in0.0 mm 0.53 in13.5 mm
10:00 PM 47.7°F8.7°C 47.4°F8.6°C 99% Calm Calm 14.5 mph23.3 kmh 29.70 in1005.8 mb 0.00 in0.0 mm 0.00 in0.0 mm 0.53 in13.5 mm
10:15 PM 47.8°F8.8°C 47.6°F8.7°C 99% Calm Calm 7.6 mph12.2 kmh 29.70 in1005.8 mb 0.00 in0.0 mm 0.00 in0.0 mm 0.53 in13.5 mm
10:30 PM 47.7°F8.7°C 47.4°F8.6°C 99% Calm Calm 4.5 mph7.2 kmh 29.70 in1005.8 mb 0.00 in0.0 mm 0.00 in0.0 mm 0.53 in13.5 mm
10:45 PM 47.7°F8.7°C 47.4°F8.6°C 99% Calm Calm 13.6 mph21.9 kmh 29.71 in1006.1 mb 0.00 in0.0 mm 0.00 in0.0 mm 0.53 in13.5 mm
11:00 PM 47.7°F8.7°C 47.4°F8.6°C 99% Calm Calm 13.6 mph21.9 kmh 29.71 in1006.1 mb 0.00 in0.0 mm 0.00 in0.0 mm 0.45 in11.4 mm
11:15 PM 47.5°F8.6°C 47.2°F8.4°C 99% Calm Calm 3.8 mph6.1 kmh 29.72 in1006.4 mb 0.00 in0.0 mm 0.00 in0.0 mm 0.45 in11.4 mm
11:30 PM 47.7°F8.7°C 47.4°F8.6°C 99% Calm Calm 4.5 mph7.2 kmh 29.73 in1006.8 mb 0.00 in0.0 mm 0.00 in0.0 mm 0.45 in11.4 mm
11:45 PM 47.1°F8.4°C 46.9°F8.3°C 99% Calm Calm 10.7 mph17.2 kmh 29.73 in1006.8 mb 0.00 in0.0 mm 0.00 in0.0 mm 0.45 in11.4 mm